Vremea acum in Negrești Oaș - Romania

Vrei sa afli care e starea vremii acum in Maramures - Romania? Dorim sa iti furnizam starea vremii pentru Maramures - Romania. Starea vremii Maramures - Romania pentru astazi.

Vremea acum in Negrești Oaș

Temperatura: 27.4 °C

Este: Senin
Se simte ca: 27.3 °C
Innorat: 0 %
Precipitatii: 0 %
Presiune atmosferica: 1013 hPa
Umiditate: 20%
Vizibilitate: 10 km
Vantul bate din SSW cu 6.8 km/h

Evolutia vremii in Negrești Oaș pe ore

Ora: 17:00
Senin
Temperatura: 27.4°C
Sansa de precipitatii: 0%
Ora Descriere Temp Se simte Precipitatii Umiditate Vant
00:00Senin10.1°9.8°0%68%ENE 5.4 KM/H
01:00Senin9.7°9.5°0%67%E 4.7 KM/H
02:00Senin9.4°9.1°0%67%E 4.7 KM/H
03:00Senin8.6°0%68%E 5 KM/H
04:00Senin8.6°8.2°0%68%E 5 KM/H
05:00Senin8.3°7.7°0%70%E 5.4 KM/H
06:00Senin7.9°7.2°0%72%ESE 5.8 KM/H
07:00Senin8.8°0%73%ESE 6.1 KM/H
08:00Senin13°13.1°0%67%SE 5.4 KM/H
09:00Senin16.1°16.1°0%60%SE 6.1 KM/H
10:00Senin18°18°0%56%SSE 6.8 KM/H
11:00Senin19.4°19.4°0%53%S 7.9 KM/H
12:00Senin20.6°20.6°0%50%S 9.4 KM/H
13:00Senin21.4°21.4°0%47%S 10.1 KM/H
14:00Senin22.1°24.3°0%45%S 10.1 KM/H
15:00Senin22.5°24.3°0%43%S 9.4 KM/H
16:00Senin22.7°24.3°0%41%SSW 7.9 KM/H
17:00Senin27.4°24.2°0%20%SSW 6.8 KM/H
18:00Senin22.1°24.2°0%42%SSW 6.1 KM/H
19:00Senin21°21°0%56%SSW 4.3 KM/H
20:00Senin15.8°15.8°0%62%SE 2.9 KM/H
21:00Senin13.6°13.8°0%64%E 5.4 KM/H
22:00Senin12.9°12.8°0%65%E 6.1 KM/H
23:00Senin12.5°12.2°0%66%E 6.5 KM/H




tutorials